Time;durP1;ratioP1;P1;durP2;ratioP2;P2;SDS_P1;SDS_P2;PMS_P1;PMS_P2;Temp;Humidity;BMP_temperature;BMP_pressure;BME280_temperature;BME280_humidity;BME280_pressure;Samples;Min_cycle;Max_cycle;Signal;HPM_P1;HPM_P2
2020/12/28 00:01:34;;;;;;;11.50;7.70;;;;;;;9.05;72.55;94201.13;5048163;28;20447;-66
2020/12/28 00:04:00;;;;;;;12.17;8.23;;;;;;;9.06;73.28;94207.94;5049609;28;20497;-67
2020/12/28 00:06:27;;;;;;;12.67;7.83;;;;;;;8.86;73.28;94207.94;5049667;28;20548;-66
2020/12/28 00:08:53;;;;;;;13.57;8.23;;;;;;;9.02;72.83;94208.72;5049109;28;20466;-66
2020/12/28 00:11:20;;;;;;;13.90;7.70;;;;;;;8.90;72.11;94203.75;5049073;28;20470;-67
2020/12/28 00:13:47;;;;;;;10.73;7.40;;;;;;;9.14;71.76;94211.84;5049386;28;20530;-65
2020/12/28 00:16:14;;;;;;;11.83;6.97;;;;;;;9.16;71.84;94201.91;5047423;28;20518;-67
2020/12/28 00:18:41;;;;;;;14.33;8.23;;;;;;;9.14;71.99;94217.09;5049414;28;20431;-66
2020/12/28 00:21:08;;;;;;;12.50;8.27;;;;;;;9.22;71.44;94227.00;5050335;28;20455;-66
2020/12/28 00:23:35;;;;;;;13.57;8.03;;;;;;;9.04;71.86;94230.94;5050351;28;20544;-67
2020/12/28 00:26:03;;;;;;;14.13;8.83;;;;;;;9.04;71.65;94220.47;5050450;28;20524;-68
2020/12/28 00:28:29;;;;;;;14.93;8.90;;;;;;;9.23;71.73;94218.88;5050837;28;20486;-66
2020/12/28 00:30:56;;;;;;;14.70;9.23;;;;;;;9.10;71.68;94203.72;5050346;28;20567;-65
2020/12/28 00:33:22;;;;;;;14.10;9.67;;;;;;;8.87;73.33;94204.25;5050450;28;20518;-64
2020/12/28 00:35:48;;;;;;;18.27;11.10;;;;;;;8.61;74.11;94201.91;5050371;28;20918;-66
2020/12/28 00:38:15;;;;;;;20.77;12.73;;;;;;;8.67;73.92;94200.84;5050517;28;20470;-64
2020/12/28 00:40:41;;;;;;;18.83;11.43;;;;;;;8.57;74.48;94200.84;5050381;28;20439;-67
2020/12/28 00:43:08;;;;;;;20.43;12.50;;;;;;;8.69;74.47;94194.34;5050772;28;20474;-64
2020/12/28 00:45:35;;;;;;;21.93;13.83;;;;;;;8.84;74.13;94199.56;5065077;28;20435;-67
2020/12/28 00:48:02;;;;;;;20.27;13.60;;;;;;;8.82;73.96;94186.00;5050582;28;20438;-66
2020/12/28 00:50:29;;;;;;;21.20;12.87;;;;;;;8.74;74.52;94186.50;5050019;28;20442;-68
2020/12/28 00:52:57;;;;;;;20.93;12.33;;;;;;;8.75;73.86;94185.47;5050202;28;20482;-66
2020/12/28 00:55:27;;;;;;;20.90;12.13;;;;;;;8.65;74.24;94180.22;5064896;28;20567;-64
2020/12/28 00:57:54;;;;;;;17.47;11.53;;;;;;;8.81;74.05;94173.94;5065390;28;20573;-66
2020/12/28 01:00:21;;;;;;;17.63;11.83;;;;;;;8.72;74.36;94188.56;5049716;28;20443;-64
2020/12/28 01:02:59;;;;;;;20.35;12.98;;;;;;;8.75;73.66;94175.00;5065390;28;20501;-64
2020/12/28 01:06:03;;;;;;;18.37;11.57;;;;;;;8.73;74.46;94174.50;5049520;28;20693;-65
2020/12/28 01:08:31;;;;;;;20.07;12.30;;;;;;;8.63;74.22;94161.41;5065032;28;20542;-66
2020/12/28 01:10:58;;;;;;;18.33;12.30;;;;;;;8.56;73.87;94176.56;5065136;28;20611;-64
2020/12/28 01:13:25;;;;;;;20.27;12.03;;;;;;;8.47;75.00;94204.22;5048697;28;20435;-66
2020/12/28 01:15:56;;;;;;;19.27;12.37;;;;;;;8.53;74.36;94203.19;5064633;28;20473;-67
2020/12/28 01:18:26;;;;;;;21.63;13.80;;;;;;;8.65;74.23;94206.34;5064809;28;20497;-67
2020/12/28 01:20:59;;;;;;;15.07;9.05;;;;;;;8.62;73.13;94195.63;5048101;28;20479;-63
2020/12/28 01:23:38;;;;;;;14.30;9.13;;;;;;;8.91;72.99;94199.31;5049396;28;20600;-64
2020/12/28 01:26:08;;;;;;;21.93;12.97;;;;;;;8.85;73.46;94201.13;5048192;28;20439;-67
2020/12/28 01:28:39;;;;;;;18.63;11.80;;;;;;;8.89;72.59;94202.19;5047974;28;20434;-64
2020/12/28 01:31:07;;;;;;;17.98;11.75;;;;;;;8.90;72.61;94188.09;5048709;28;20509;-68
2020/12/28 01:33:52;;;;;;;18.87;12.33;;;;;;;8.28;74.53;94192.72;5053187;28;20227;-63
2020/12/28 01:36:22;;;;;;;19.30;12.50;;;;;;;8.73;73.46;94186.75;5048495;28;20475;-64
2020/12/28 01:38:48;;;;;;;18.03;12.33;;;;;;;8.81;72.74;94184.41;5049098;28;20965;-68
2020/12/28 01:41:15;;;;;;;16.30;11.38;;;;;;;8.58;72.88;94197.97;5049456;28;20446;-66
2020/12/28 01:43:44;;;;;;;16.33;10.37;;;;;;;8.86;72.55;94183.63;5048741;28;20238;-68
2020/12/28 01:46:15;;;;;;;14.95;9.90;;;;;;;9.02;71.05;94185.97;5048232;28;21373;-70
2020/12/28 01:48:43;;;;;;;15.30;9.83;;;;;;;9.13;70.90;94166.63;5048914;28;20577;-65
2020/12/28 01:51:13;;;;;;;13.83;9.23;;;;;;;8.90;70.80;94167.19;5064538;28;20529;-66
2020/12/28 01:53:41;;;;;;;13.10;7.07;;;;;;;8.69;70.89;94176.06;5049020;28;20462;-65
2020/12/28 01:56:16;;;;;;;10.80;7.82;;;;;;;8.93;70.83;94174.50;5049172;28;20871;-67
2020/12/28 01:58:49;;;;;;;12.97;8.50;;;;;;;9.00;70.98;94159.34;5049147;28;20208;-67
2020/12/28 02:01:17;;;;;;;13.80;8.70;;;;;;;8.50;72.49;94171.59;5047699;28;20520;-64
2020/12/28 02:03:46;;;;;;;13.07;8.23;;;;;;;8.89;71.42;94170.03;5047364;28;20494;-67
2020/12/28 02:06:27;;;;;;;12.37;7.80;;;;;;;8.92;70.57;94149.41;5047810;28;20443;-63
2020/12/28 02:08:54;;;;;;;12.70;8.47;;;;;;;8.74;70.94;94159.63;5047486;28;20439;-65
2020/12/28 02:11:22;;;;;;;13.82;9.30;;;;;;;8.93;71.13;94161.44;5048954;28;20446;-65
2020/12/28 02:13:49;;;;;;;18.80;11.30;;;;;;;9.02;70.10;94159.84;5047239;28;20916;-67
2020/12/28 02:16:36;;;;;;;14.47;9.77;;;;;;;9.01;70.47;94157.50;5048221;28;20439;-65
2020/12/28 02:19:10;;;;;;;15.67;10.13;;;;;;;8.88;70.76;94150.19;5046889;28;20443;-63
2020/12/28 02:21:40;;;;;;;17.25;9.45;;;;;;;8.85;70.09;94127.97;5047992;28;20451;-63
2020/12/28 02:24:10;;;;;;;13.05;8.60;;;;;;;8.89;70.36;94149.94;5063700;28;20228;-63
2020/12/28 02:26:40;;;;;;;12.70;8.57;;;;;;;8.73;71.06;94151.00;5048047;28;20742;-62
2020/12/28 02:29:06;;;;;;;14.27;9.50;;;;;;;8.86;71.72;94144.44;5046875;28;20223;-61
2020/12/28 02:31:32;;;;;;;14.65;9.85;;;;;;;8.65;71.68;94148.88;5049145;28;20455;-63
2020/12/28 02:34:18;;;;;;;14.55;10.13;;;;;;;8.79;71.53;94170.06;5049516;28;20234;-65
2020/12/28 02:37:00;;;;;;;19.40;11.32;;;;;;;8.66;71.54;94176.59;5051417;28;20204;-64
2020/12/28 02:39:44;;;;;;;16.73;10.80;;;;;;;8.72;71.89;94185.97;5067842;28;20204;-65
2020/12/28 02:42:11;;;;;;;17.70;11.55;;;;;;;8.31;73.05;94162.69;5068057;28;20236;-64
2020/12/28 02:44:56;;;;;;;15.80;10.07;;;;;;;8.13;74.29;94169.16;5052643;28;20701;-66
2020/12/28 02:47:41;;;;;;;15.82;10.68;;;;;;;8.13;74.22;94188.22;5052693;28;20207;-64
2020/12/28 02:50:29;;;;;;;15.48;9.98;;;;;;;8.28;73.37;94184.09;5052432;28;20697;-67
2020/12/28 02:53:15;;;;;;;15.68;10.93;;;;;;;8.03;74.98;94197.81;5052465;28;20886;-64
2020/12/28 02:56:00;;;;;;;16.17;10.38;;;;;;;8.34;73.96;94186.44;5052539;28;20216;-66
2020/12/28 02:58:45;;;;;;;19.50;11.88;;;;;;;8.10;74.14;94203.59;5051893;28;20216;-64
2020/12/28 03:01:30;;;;;;;16.13;11.25;;;;;;;8.08;74.28;94176.97;5053143;28;20333;-65
2020/12/28 03:04:16;;;;;;;19.20;12.20;;;;;;;8.12;74.83;94170.19;5052263;28;20709;-66
2020/12/28 03:07:01;;;;;;;18.47;11.77;;;;;;;8.34;73.27;94194.28;5053105;28;20301;-63
2020/12/28 03:09:47;;;;;;;16.98;11.35;;;;;;;7.75;74.76;94225.09;5052314;28;20429;-65
2020/12/28 03:12:31;;;;;;;15.10;10.88;;;;;;;8.09;73.86;94207.22;5052597;28;20262;-64
2020/12/28 03:15:16;;;;;;;17.42;11.15;;;;;;;7.65;75.93;94182.53;5051971;28;20661;-63
2020/12/28 03:18:01;;;;;;;16.80;10.88;;;;;;;8.08;74.29;94175.13;5052476;28;20214;-62
2020/12/28 03:20:46;;;;;;;19.85;12.77;;;;;;;7.95;74.56;94162.59;5051175;28;20219;-63
2020/12/28 03:23:32;;;;;;;19.92;13.32;;;;;;;7.97;74.06;94194.41;5051535;28;20235;-67
2020/12/28 03:26:24;;;;;;;14.55;9.32;;;;;;;7.45;76.75;94211.09;5028127;28;20299;-65
2020/12/28 03:29:32;;;;;;;17.17;10.10;;;;;;;8.02;74.45;94175.38;5051516;28;20266;-63
2020/12/28 03:32:17;;;;;;;15.25;10.18;;;;;;;8.00;74.73;94180.88;5052117;28;20207;-65
2020/12/28 03:35:02;;;;;;;18.00;11.40;;;;;;;8.00;74.43;94191.28;5051338;28;20216;-63
2020/12/28 03:37:48;;;;;;;14.43;9.68;;;;;;;8.04;73.59;94196.78;5051824;28;20251;-64
2020/12/28 03:40:34;;;;;;;15.27;10.23;;;;;;;8.14;72.77;94145.41;5051204;28;20199;-63
2020/12/28 03:43:19;;;;;;;17.15;10.98;;;;;;;8.36;73.22;94181.75;5051985;28;20819;-66
2020/12/28 03:46:04;;;;;;;17.55;10.70;;;;;;;8.00;73.91;94212.16;5051984;28;20200;-63
2020/12/28 03:48:49;;;;;;;13.63;8.80;;;;;;;8.19;73.63;94191.63;5052113;28;20208;-64
2020/12/28 03:51:39;;;;;;;13.82;9.63;;;;;;;8.11;73.37;94173.84;5032288;28;20640;-63
2020/12/28 03:54:25;;;;;;;12.52;8.68;;;;;;;7.67;73.86;94196.09;5051048;28;20286;-67
2020/12/28 03:57:12;;;;;;;14.07;8.75;;;;;;;7.76;73.96;94192.75;5051735;28;20279;-65
2020/12/28 03:59:58;;;;;;;14.05;9.45;;;;;;;8.08;72.80;94195.25;5051453;28;20211;-63
2020/12/28 04:02:40;;;;;;;13.50;8.93;;;;;;;8.11;72.89;94181.66;5051742;28;20241;-66
2020/12/28 04:05:26;;;;;;;13.63;8.43;;;;;;;8.12;72.41;94191.84;5051312;28;20213;-63
2020/12/28 04:08:11;;;;;;;13.55;8.63;;;;;;;8.14;71.91;94188.97;5051725;28;20287;-67
2020/12/28 04:10:57;;;;;;;14.67;9.47;;;;;;;7.95;72.66;94200.94;5050707;28;20343;-66
2020/12/28 04:13:49;;;;;;;12.70;8.68;;;;;;;7.97;72.32;94198.84;5049344;28;20533;-67
2020/12/28 04:16:16;;;;;;;14.30;8.73;;;;;;;7.79;72.85;94233.22;5051105;28;20210;-66
2020/12/28 04:18:43;;;;;;;13.07;8.88;;;;;;;7.88;72.30;94208.97;5050765;28;20192;-67
2020/12/28 04:21:10;;;;;;;13.52;8.55;;;;;;;7.85;72.22;94222.53;5051287;28;20200;-66
2020/12/28 04:23:36;;;;;;;13.60;8.95;;;;;;;8.09;72.21;94181.94;5050872;28;20232;-66
2020/12/28 04:26:06;;;;;;;12.13;8.38;;;;;;;7.83;73.05;94234.25;5049330;28;20738;-66
2020/12/28 04:28:34;;;;;;;14.38;8.18;;;;;;;7.76;72.60;94194.56;5051203;28;20201;-67
2020/12/28 04:31:01;;;;;;;11.38;7.90;;;;;;;7.65;72.88;94153.84;5050470;28;20760;-62
2020/12/28 04:33:27;;;;;;;13.63;8.45;;;;;;;7.56;73.94;94190.06;5050587;28;20270;-65
2020/12/28 04:35:54;;;;;;;9.77;7.28;;;;;;;7.12;74.89;94215.59;5050182;28;20242;-64
2020/12/28 04:38:21;;;;;;;11.95;7.88;;;;;;;7.67;73.79;94196.09;5050641;28;20296;-62
2020/12/28 04:40:47;;;;;;;10.13;7.05;;;;;;;7.81;72.79;94198.00;5050236;28;20247;-62
2020/12/28 04:43:14;;;;;;;10.80;7.82;;;;;;;7.83;72.42;94223.81;5057535;28;20204;-62
2020/12/28 04:45:41;;;;;;;12.77;8.13;;;;;;;7.86;72.24;94212.91;5051040;28;20213;-64
2020/12/28 04:48:08;;;;;;;15.52;9.27;;;;;;;7.45;73.40;94227.53;5050579;28;20286;-63
2020/12/28 04:50:36;;;;;;;14.40;8.77;;;;;;;7.74;73.05;94214.91;5048258;28;20591;-68
2020/12/28 04:53:04;;;;;;;14.88;8.80;;;;;;;7.41;73.39;94230.91;5050483;28;20475;-66
2020/12/28 04:55:31;;;;;;;13.60;9.15;;;;;;;7.61;73.20;94223.97;5049805;28;20605;-61
2020/12/28 04:57:58;;;;;;;12.60;8.82;;;;;;;7.85;72.78;94219.13;5049639;28;20215;-63
2020/12/28 05:00:26;;;;;;;12.85;8.80;;;;;;;7.84;72.06;94223.59;5049907;28;20207;-64
2020/12/28 05:02:54;;;;;;;15.82;9.13;;;;;;;7.73;72.40;94218.56;5050616;28;20215;-65
2020/12/28 05:05:21;;;;;;;15.63;9.23;;;;;;;7.80;71.78;94224.34;5065417;28;20681;-64
2020/12/28 05:07:49;;;;;;;13.82;9.35;;;;;;;7.61;72.33;94225.81;5050229;28;20216;-67
2020/12/28 05:10:26;;;;;;;13.02;8.80;;;;;;;7.79;72.11;94220.16;5051298;28;20724;-63
2020/12/28 05:12:54;;;;;;;13.40;9.13;;;;;;;7.82;71.92;94224.88;5051594;28;20223;-65
2020/12/28 05:15:20;;;;;;;14.43;9.48;;;;;;;7.61;72.90;94231.03;5050486;28;20224;-63
2020/12/28 05:17:53;;;;;;;14.27;9.65;;;;;;;7.41;72.77;94273.38;5049891;28;20184;-66
2020/12/28 05:20:24;;;;;;;12.45;7.95;;;;;;;7.65;72.89;94273.78;5049727;28;20588;-65
2020/12/28 05:22:54;;;;;;;11.75;8.13;;;;;;;7.69;72.92;94243.56;5050150;28;20200;-65
2020/12/28 05:25:22;;;;;;;14.55;8.18;;;;;;;7.75;73.14;94237.34;5049511;28;20247;-64
2020/12/28 05:27:49;;;;;;;12.98;8.20;;;;;;;7.48;73.27;94258.31;5049751;28;20196;-65
2020/12/28 05:30:20;;;;;;;11.57;7.15;;;;;;;7.30;73.66;94286.59;5049343;28;20255;-66
2020/12/28 05:32:47;;;;;;;12.55;7.82;;;;;;;7.69;73.34;94264.44;5049735;28;20204;-63
2020/12/28 05:35:14;;;;;;;11.88;7.68;;;;;;;7.79;72.44;94259.28;5048637;28;20232;-63
2020/12/28 05:37:46;;;;;;;12.48;8.40;;;;;;;7.75;72.54;94286.91;5049544;28;20239;-67
2020/12/28 05:40:12;;;;;;;10.88;7.25;;;;;;;7.29;74.23;94303.25;5049069;28;20196;-67
2020/12/28 05:42:56;;;;;;;11.15;7.40;;;;;;;7.43;73.60;94312.22;5049309;28;20254;-66
2020/12/28 05:45:23;;;;;;;12.80;7.90;;;;;;;7.44;73.75;94303.38;5049000;28;20196;-64
2020/12/28 05:47:54;;;;;;;12.93;7.90;;;;;;;7.95;72.93;94302.66;5049298;28;20197;-64
2020/12/28 05:50:30;;;;;;;11.00;7.85;;;;;;;7.89;72.58;94296.63;5048830;28;20235;-66
2020/12/28 05:53:02;;;;;;;10.77;7.82;;;;;;;8.14;71.57;94301.97;5049736;28;20560;-64
2020/12/28 05:55:30;;;;;;;12.27;9.00;;;;;;;8.01;72.08;94289.38;5049031;28;20189;-64
2020/12/28 05:57:59;;;;;;;17.63;12.73;;;;;;;8.03;72.67;94284.69;5049425;28;20197;-62
2020/12/28 06:00:27;;;;;;;26.90;20.07;;;;;;;7.86;72.71;94327.66;5048803;28;20289;-67
2020/12/28 06:02:54;;;;;;;31.70;23.08;;;;;;;7.40;74.28;94310.13;5049219;28;21203;-66
2020/12/28 06:05:21;;;;;;;29.20;20.92;;;;;;;7.75;73.78;94299.94;5048908;28;20615;-64
2020/12/28 06:07:48;;;;;;;21.35;12.90;;;;;;;7.33;74.63;94301.72;5049393;28;20246;-63
2020/12/28 06:10:15;;;;;;;22.20;14.85;;;;;;;7.49;75.15;94332.06;5047977;28;20207;-65
2020/12/28 06:12:42;;;;;;;21.20;14.30;;;;;;;7.72;74.17;94284.81;5049005;28;20209;-63
2020/12/28 06:15:18;;;;;;;19.25;13.27;;;;;;;7.64;74.21;94329.59;5048987;28;20287;-65
2020/12/28 06:17:45;;;;;;;19.30;12.73;;;;;;;7.68;74.34;94334.03;5052074;28;20223;-64
2020/12/28 06:20:11;;;;;;;20.02;14.18;;;;;;;7.90;73.43;94298.19;5050335;28;20291;-61
2020/12/28 06:22:40;;;;;;;22.40;12.75;;;;;;;7.87;74.04;94316.16;5049691;28;20266;-68
2020/12/28 06:25:11;;;;;;;18.23;12.95;;;;;;;8.17;73.41;94326.78;5048615;28;20221;-66
2020/12/28 06:27:40;;;;;;;19.77;13.73;;;;;;;8.01;73.45;94319.91;5049082;28;20251;-65
2020/12/28 06:30:18;;;;;;;21.30;13.17;;;;;;;7.98;74.29;94346.50;5048799;28;20224;-65
2020/12/28 06:32:47;;;;;;;19.33;13.83;;;;;;;8.25;73.29;94341.22;5048973;28;20478;-64
2020/12/28 06:35:16;;;;;;;17.38;11.90;;;;;;;7.90;74.20;94349.59;5048279;28;20471;-64
2020/12/28 06:37:50;;;;;;;18.42;12.85;;;;;;;8.18;73.29;94316.09;5048876;28;20669;-64
2020/12/28 06:40:40;;;;;;;18.27;12.07;;;;;;;8.08;73.84;94325.69;5048182;28;20266;-63
2020/12/28 06:43:15;;;;;;;16.67;12.07;;;;;;;8.13;73.58;94344.78;5042784;28;20620;-65
2020/12/28 06:45:49;;;;;;;19.92;12.00;;;;;;;8.19;73.00;94343.72;5048548;28;20219;-63
2020/12/28 06:48:23;;;;;;;16.67;11.23;;;;;;;8.37;72.21;94355.63;5048597;28;20287;-68
2020/12/28 06:50:52;;;;;;;18.10;11.35;;;;;;;8.48;72.55;94346.00;5048749;28;20211;-64
2020/12/28 06:53:25;;;;;;;17.42;12.02;;;;;;;8.79;71.19;94332.78;5048472;28;20184;-67
2020/12/28 06:55:53;;;;;;;17.75;11.60;;;;;;;8.94;71.80;94292.84;5048673;28;20588;-64
2020/12/28 06:58:19;;;;;;;19.13;12.27;;;;;;;8.29;72.63;94337.81;5048395;28;20195;-64
2020/12/28 07:00:46;;;;;;;19.45;13.00;;;;;;;8.90;72.51;94330.97;5048298;28;20435;-65
2020/12/28 07:03:17;;;;;;;17.92;12.45;;;;;;;9.23;71.76;94333.13;5048506;28;20244;-65
2020/12/28 07:05:44;;;;;;;18.98;12.57;;;;;;;9.39;71.13;94323.47;5048521;28;20193;-64
2020/12/28 07:08:11;;;;;;;17.90;12.13;;;;;;;9.31;70.04;94322.13;5048911;28;20203;-63
2020/12/28 07:10:37;;;;;;;19.17;12.70;;;;;;;9.48;69.47;94346.22;5048505;28;20447;-64
2020/12/28 07:13:05;;;;;;;19.00;12.53;;;;;;;9.52;70.42;94356.94;5049005;28;20520;-65
2020/12/28 07:15:34;;;;;;;24.70;15.97;;;;;;;9.18;70.67;94357.41;5044246;28;21411;-63
2020/12/28 07:18:10;;;;;;;25.23;17.23;;;;;;;9.47;70.86;94354.31;5041174;28;20448;-62
2020/12/28 07:20:37;;;;;;;24.77;17.40;;;;;;;9.57;70.85;94338.63;5046814;28;20474;-62
2020/12/28 07:23:04;;;;;;;26.87;18.27;;;;;;;9.53;70.93;94348.03;5050079;28;20438;-65
2020/12/28 07:25:33;;;;;;;27.03;17.07;;;;;;;9.61;72.44;94344.91;5051073;28;20482;-62
2020/12/28 07:28:00;;;;;;;29.83;20.53;;;;;;;9.51;73.60;94350.13;5051659;28;20478;-64
2020/12/28 07:30:27;;;;;;;22.77;15.00;;;;;;;9.14;71.98;94345.16;5050982;28;20537;-68
2020/12/28 07:32:57;;;;;;;19.67;13.00;;;;;;;9.13;70.45;94364.47;5051461;28;20959;-68
2020/12/28 07:35:27;;;;;;;20.07;13.03;;;;;;;9.35;70.51;94364.22;5051319;28;20478;-61
2020/12/28 07:37:55;;;;;;;21.07;14.00;;;;;;;9.34;71.03;94349.59;5051169;28;20443;-67
2020/12/28 07:40:21;;;;;;;18.07;11.93;;;;;;;9.26;70.38;94357.94;5051223;28;20498;-68
2020/12/28 07:42:47;;;;;;;18.77;12.57;;;;;;;9.60;69.86;94344.09;5051194;28;20901;-68
2020/12/28 07:45:16;;;;;;;15.07;10.33;;;;;;;9.95;68.46;94351.16;5050890;28;20656;-63
2020/12/28 07:47:47;;;;;;;13.60;10.37;;;;;;;10.25;68.67;94361.59;5051212;28;20421;-66
2020/12/28 07:50:16;;;;;;;16.50;10.40;;;;;;;10.59;68.38;94349.44;5050419;28;20491;-68
2020/12/28 07:53:09;;;;;;;13.43;9.73;;;;;;;10.88;67.90;94363.47;5053425;28;20522;-66
2020/12/28 07:55:45;;;;;;;11.23;7.67;;;;;;;10.71;66.55;94364.84;5050658;28;20443;-64
2020/12/28 07:58:44;;;;;;;13.30;7.63;;;;;;;10.72;66.60;94371.66;5050917;28;20546;-65
2020/12/28 08:01:41;;;;;;;10.27;7.27;;;;;;;11.11;65.82;94348.94;5050966;28;20475;-67
2020/12/28 08:04:10;;;;;;;12.13;7.77;;;;;;;11.43;65.23;94328.25;5049014;28;20483;-65
2020/12/28 08:06:37;;;;;;;14.93;8.27;;;;;;;11.61;64.68;94327.56;5050864;28;20435;-64
2020/12/28 08:09:05;;;;;;;18.37;9.60;;;;;;;11.68;63.98;94309.69;5048086;28;20819;-65
2020/12/28 08:11:32;;;;;;;11.83;8.80;;;;;;;11.75;65.37;94318.03;5039052;28;21417;-72
2020/12/28 08:14:08;;;;;;;13.87;9.13;;;;;;;11.23;64.61;94326.56;5050074;28;20458;-67
2020/12/28 08:16:34;;;;;;;13.43;9.17;;;;;;;11.78;64.34;94324.59;5050291;28;20512;-67
2020/12/28 08:19:01;;;;;;;12.47;8.50;;;;;;;12.13;63.71;94311.13;5050008;28;20441;-68
2020/12/28 08:21:39;;;;;;;275.27;27.13;;;;;;;12.49;63.02;94312.28;5050528;28;20454;-68
2020/12/28 08:24:05;;;;;;;9.00;6.80;;;;;;;12.48;61.28;94310.72;5049688;28;20499;-71
2020/12/28 08:26:32;;;;;;;8.43;5.60;;;;;;;12.49;60.31;94275.50;5050543;28;20549;-64
2020/12/28 08:29:00;;;;;;;7.97;5.80;;;;;;;12.88;58.67;94304.94;5050111;28;20443;-65
2020/12/28 08:31:28;;;;;;;9.03;6.13;;;;;;;13.01;59.68;94300.88;5049991;28;20443;-66
2020/12/28 08:34:11;;;;;;;15.67;7.13;;;;;;;12.90;58.97;94296.81;5049633;28;20550;-65
2020/12/28 08:36:50;;;;;;;19.13;7.50;;;;;;;13.17;58.90;94291.72;5050346;28;20434;-67
2020/12/28 08:39:19;;;;;;;12.93;7.93;;;;;;;13.42;59.11;94285.28;5049603;28;20496;-65
2020/12/28 08:41:54;;;;;;;11.17;7.47;;;;;;;13.78;58.40;94273.09;5050057;28;20435;-63
2020/12/28 08:44:28;;;;;;;13.87;9.70;;;;;;;14.09;55.83;94271.47;5050185;28;20551;-63
2020/12/28 08:46:59;;;;;;;13.03;9.13;;;;;;;14.32;56.05;94265.28;5049921;28;20472;-64
2020/12/28 08:49:27;;;;;;;21.97;13.07;;;;;;;14.27;55.38;94270.63;5049639;28;20442;-66
2020/12/28 08:51:55;;;;;;;18.43;12.50;;;;;;;14.44;56.90;94280.59;5050004;28;20481;-65
2020/12/28 08:54:28;;;;;;;18.27;12.47;;;;;;;14.73;55.75;94284.47;5049696;28;20455;-68
2020/12/28 08:56:54;;;;;;;14.70;10.10;;;;;;;15.01;55.09;94272.81;5049582;28;20538;-62
2020/12/28 08:59:21;;;;;;;12.87;8.70;;;;;;;15.35;53.58;94267.00;5049015;28;20439;-64
2020/12/28 09:01:57;;;;;;;11.93;9.20;;;;;;;15.55;54.39;94250.72;5048741;28;21109;-68
2020/12/28 09:04:24;;;;;;;9.03;6.60;;;;;;;15.19;51.71;94260.53;5047302;28;20984;-64
2020/12/28 09:06:52;;;;;;;10.77;7.57;;;;;;;15.38;53.62;94266.44;5049498;28;20441;-68
2020/12/28 09:09:19;;;;;;;8.57;6.20;;;;;;;15.80;51.77;94258.00;5048746;28;20442;-64
2020/12/28 09:11:46;;;;;;;9.43;6.73;;;;;;;16.17;54.41;94246.22;5049438;28;20528;-64
2020/12/28 09:14:13;;;;;;;398.03;37.57;;;;;;;16.28;50.66;94236.16;5048904;28;20529;-71
2020/12/28 09:16:39;;;;;;;90.23;14.37;;;;;;;16.22;50.33;94238.16;5049614;28;20447;-66
2020/12/28 09:19:06;;;;;;;14.53;7.83;;;;;;;16.11;50.43;94242.16;5048868;28;20439;-62
2020/12/28 09:21:32;;;;;;;8.30;5.50;;;;;;;16.52;47.22;94253.22;5049143;28;20993;-66
2020/12/28 09:23:59;;;;;;;6.13;4.77;;;;;;;16.33;47.94;94255.28;5048880;28;20462;-69
2020/12/28 09:26:28;;;;;;;7.70;5.73;;;;;;;15.41;51.80;94251.88;5053132;28;20500;-70
2020/12/28 09:28:55;;;;;;;10.37;7.57;;;;;;;15.41;49.35;94243.94;5048734;28;20950;-71
2020/12/28 09:31:22;;;;;;;34.43;25.00;;;;;;;15.96;47.46;94261.06;5064205;28;20952;-70
2020/12/28 09:33:49;;;;;;;113.57;76.10;;;;;;;15.69;47.28;94271.78;5048428;28;21256;-69
2020/12/28 09:36:22;;;;;;;105.00;13.57;;;;;;;15.73;47.25;94270.13;5048887;28;20478;-72
2020/12/28 09:38:49;;;;;;;280.53;24.50;;;;;;;16.06;46.96;94258.13;5047895;28;20443;-68
2020/12/28 09:41:16;;;;;;;12.93;4.90;;;;;;;16.41;45.13;94251.13;5045167;28;20538;-70
2020/12/28 09:43:43;;;;;;;154.27;16.80;;;;;;;16.28;45.71;94247.50;5027559;28;20466;-68
2020/12/28 09:46:10;;;;;;;11.97;5.23;;;;;;;16.62;45.53;94257.44;5028926;28;20489;-66
2020/12/28 09:48:36;;;;;;;124.10;11.53;;;;;;;16.91;44.77;94229.34;5028847;28;20435;-67
2020/12/28 09:51:04;;;;;;;14.17;9.93;;;;;;;16.43;43.83;94222.50;5027702;28;20454;-66
2020/12/28 09:53:30;;;;;;;38.30;30.53;;;;;;;16.41;45.95;94222.81;5028984;28;20439;-64
2020/12/28 09:55:57;;;;;;;8.83;6.33;;;;;;;16.24;44.60;94204.25;5027789;28;20454;-66
2020/12/28 09:58:23;;;;;;;5.93;3.80;;;;;;;16.45;45.03;94225.63;5028822;28;20531;-64
2020/12/28 10:00:50;;;;;;;25.77;20.93;;;;;;;16.65;45.47;94214.50;5028639;28;20466;-66
2020/12/28 10:03:16;;;;;;;16.60;12.67;;;;;;;16.97;44.51;94203.50;5028507;28;20439;-65
2020/12/28 10:05:43;;;;;;;29.87;21.33;;;;;;;17.08;42.26;94202.84;5027945;28;20797;-66
2020/12/28 10:08:09;;;;;;;7.77;4.23;;;;;;;17.50;42.02;94200.53;5028435;28;20455;-67
2020/12/28 10:10:35;;;;;;;27.40;4.70;;;;;;;17.51;40.83;94178.22;5031037;28;20435;-69
2020/12/28 10:13:02;;;;;;;9.67;3.77;;;;;;;17.55;40.54;94173.84;5048466;28;20562;-69
2020/12/28 10:15:28;;;;;;;3.43;2.60;;;;;;;17.57;39.57;94153.88;5048001;28;20443;-64
2020/12/28 10:18:21;;;;;;;3.00;1.77;;;;;;;17.39;39.01;94157.66;5048329;28;20438;-69
2020/12/28 10:20:51;;;;;;;117.73;8.77;;;;;;;17.54;40.10;94167.00;5048109;28;20475;-67
2020/12/28 10:23:17;;;;;;;10.63;4.43;;;;;;;17.75;39.57;94163.38;5048361;28;20515;-67
2020/12/28 10:25:44;;;;;;;3.90;3.20;;;;;;;17.88;40.04;94151.00;5047176;28;20463;-67
2020/12/28 10:28:11;;;;;;;3.23;2.50;;;;;;;17.61;38.25;94146.13;5048342;28;20439;-66
2020/12/28 10:30:37;;;;;;;6.20;3.13;;;;;;;17.53;37.11;94144.25;5048420;28;20878;-67
2020/12/28 10:33:04;;;;;;;6.23;3.83;;;;;;;17.33;37.89;94144.91;5048514;28;20893;-70
2020/12/28 10:35:30;;;;;;;7.47;4.23;;;;;;;16.91;40.49;94139.38;5047737;28;21008;-62
2020/12/28 10:37:57;;;;;;;18.17;4.77;;;;;;;16.60;41.21;94146.69;5033674;28;20542;-64
2020/12/28 10:40:23;;;;;;;121.20;87.37;;;;;;;16.51;41.10;94145.88;5027357;28;20439;-67
2020/12/28 10:43:05;;;;;;;48.97;40.50;;;;;;;16.77;41.48;94146.66;5029286;28;20842;-67
2020/12/28 10:45:31;;;;;;;18.10;5.00;;;;;;;17.01;41.53;94133.75;5028035;28;20490;-64
2020/12/28 10:47:58;;;;;;;5.40;3.43;;;;;;;17.09;39.90;94137.47;5028243;28;20828;-63
2020/12/28 10:50:24;;;;;;;4.80;3.23;;;;;;;16.68;38.91;94135.31;5027856;28;20439;-73
2020/12/28 10:52:51;;;;;;;5.00;2.50;;;;;;;16.74;39.12;94136.72;5028572;28;20578;-71
2020/12/28 10:55:18;;;;;;;6.17;3.07;;;;;;;16.63;40.53;94132.03;5029341;28;20539;-68
2020/12/28 10:57:45;;;;;;;6.30;3.57;;;;;;;16.85;40.56;94119.44;5031956;28;20458;-66
2020/12/28 11:00:11;;;;;;;5.37;3.50;;;;;;;16.89;41.32;94115.09;5033918;28;20442;-62
2020/12/28 11:02:38;;;;;;;3.37;2.30;;;;;;;16.54;39.70;94113.53;5034814;28;20534;-73
2020/12/28 11:05:04;;;;;;;4.63;3.33;;;;;;;16.51;41.41;94114.16;5031532;28;20481;-68
2020/12/28 11:07:30;;;;;;;72.17;61.90;;;;;;;16.26;38.83;94122.78;5031716;28;20554;-70
2020/12/28 11:09:57;;;;;;;8.00;5.87;;;;;;;16.20;40.09;94116.88;5031780;28;20537;-67
2020/12/28 11:12:23;;;;;;;4.07;2.90;;;;;;;15.69;39.43;94123.88;5050304;28;20439;-68
2020/12/28 11:14:50;;;;;;;7.23;3.00;;;;;;;15.74;39.61;94118.47;5050756;28;20466;-72
2020/12/28 11:17:16;;;;;;;24.30;4.30;;;;;;;15.66;39.76;94130.56;5051122;28;20439;-68
2020/12/28 11:19:44;;;;;;;11.33;4.23;;;;;;;15.89;39.19;94118.81;5051267;28;20447;-65
2020/12/28 11:22:10;;;;;;;5.80;3.10;;;;;;;16.15;39.67;94122.31;5051740;28;20525;-64
2020/12/28 11:24:37;;;;;;;5.47;2.77;;;;;;;16.27;39.50;94111.13;5050521;28;20467;-67
2020/12/28 11:27:03;;;;;;;7.43;3.67;;;;;;;16.20;39.24;94105.53;5051491;28;20898;-66
2020/12/28 11:29:29;;;;;;;7.87;2.83;;;;;;;16.30;39.96;94107.88;5051788;28;21035;-71
2020/12/28 11:31:56;;;;;;;7.13;3.50;;;;;;;16.43;39.95;94112.25;5052313;28;20925;-65
2020/12/28 11:34:22;;;;;;;309.53;27.30;;;;;;;16.53;38.87;94113.84;5051161;28;20470;-74
2020/12/28 11:36:49;;;;;;;9.23;4.57;;;;;;;16.84;38.70;94123.16;5051257;28;20474;-67
2020/12/28 11:39:15;;;;;;;6.43;2.20;;;;;;;17.04;34.85;94111.94;5049871;28;20441;-71
2020/12/28 11:41:42;;;;;;;6.90;2.30;;;;;;;17.56;33.53;94111.81;5051132;28;20454;-72
2020/12/28 11:44:12;;;;;;;48.77;4.67;;;;;;;18.46;32.38;94108.59;5050507;28;20470;-64
2020/12/28 11:46:40;;;;;;;8.37;2.40;;;;;;;20.36;30.47;94115.06;5051131;28;20442;-66
2020/12/28 11:49:07;;;;;;;2.63;1.80;;;;;;;21.28;27.72;94112.34;5050554;28;20435;-66